sensor_id;sensor_type;location;lat;lon;timestamp;P1;durP1;ratioP1;P2;durP2;ratioP2
33926;SDS011;20485;50.992;5.550;2023-08-31T00:00:44;4.78;;;1.60;;
33926;SDS011;20485;50.992;5.550;2023-08-31T00:03:11;4.10;;;1.45;;
33926;SDS011;20485;50.992;5.550;2023-08-31T00:05:40;2.80;;;1.60;;
33926;SDS011;20485;50.992;5.550;2023-08-31T00:08:07;4.18;;;1.50;;
33926;SDS011;20485;50.992;5.550;2023-08-31T00:10:34;2.08;;;1.42;;
33926;SDS011;20485;50.992;5.550;2023-08-31T00:13:00;3.35;;;1.45;;
33926;SDS011;20485;50.992;5.550;2023-08-31T00:15:26;5.68;;;1.60;;
33926;SDS011;20485;50.992;5.550;2023-08-31T00:17:53;6.88;;;1.17;;
33926;SDS011;20485;50.992;5.550;2023-08-31T00:20:19;7.30;;;1.63;;
33926;SDS011;20485;50.992;5.550;2023-08-31T00:22:46;3.42;;;1.65;;
33926;SDS011;20485;50.992;5.550;2023-08-31T00:25:13;4.25;;;1.27;;
33926;SDS011;20485;50.992;5.550;2023-08-31T00:27:38;6.38;;;1.60;;
33926;SDS011;20485;50.992;5.550;2023-08-31T00:30:05;2.92;;;1.20;;
33926;SDS011;20485;50.992;5.550;2023-08-31T00:32:37;5.03;;;1.50;;
33926;SDS011;20485;50.992;5.550;2023-08-31T00:35:04;8.88;;;1.48;;
33926;SDS011;20485;50.992;5.550;2023-08-31T00:37:30;8.05;;;1.35;;
33926;SDS011;20485;50.992;5.550;2023-08-31T00:39:56;5.22;;;1.60;;
33926;SDS011;20485;50.992;5.550;2023-08-31T00:42:22;4.95;;;1.20;;
33926;SDS011;20485;50.992;5.550;2023-08-31T00:44:47;2.35;;;1.25;;
33926;SDS011;20485;50.992;5.550;2023-08-31T00:47:14;12.02;;;1.65;;
33926;SDS011;20485;50.992;5.550;2023-08-31T00:49:40;4.95;;;1.48;;
33926;SDS011;20485;50.992;5.550;2023-08-31T00:52:06;4.47;;;1.73;;
33926;SDS011;20485;50.992;5.550;2023-08-31T00:54:32;9.10;;;1.40;;
33926;SDS011;20485;50.992;5.550;2023-08-31T00:56:59;3.50;;;1.23;;
33926;SDS011;20485;50.992;5.550;2023-08-31T00:59:25;2.95;;;1.48;;
33926;SDS011;20485;50.992;5.550;2023-08-31T01:04:21;6.80;;;1.33;;
33926;SDS011;20485;50.992;5.550;2023-08-31T01:15:13;11.88;;;2.58;;
33926;SDS011;20485;50.992;5.550;2023-08-31T01:17:45;5.88;;;1.25;;
33926;SDS011;20485;50.992;5.550;2023-08-31T01:20:21;1.85;;;1.33;;
33926;SDS011;20485;50.992;5.550;2023-08-31T01:23:01;2.23;;;1.40;;
33926;SDS011;20485;50.992;5.550;2023-08-31T01:25:29;5.95;;;1.80;;
33926;SDS011;20485;50.992;5.550;2023-08-31T01:27:58;4.63;;;1.33;;
33926;SDS011;20485;50.992;5.550;2023-08-31T01:30:24;3.13;;;1.30;;
33926;SDS011;20485;50.992;5.550;2023-08-31T01:32:50;2.60;;;1.35;;
33926;SDS011;20485;50.992;5.550;2023-08-31T01:35:16;3.15;;;1.20;;
33926;SDS011;20485;50.992;5.550;2023-08-31T01:37:59;2.95;;;1.15;;
33926;SDS011;20485;50.992;5.550;2023-08-31T01:40:32;5.22;;;1.30;;
33926;SDS011;20485;50.992;5.550;2023-08-31T01:43:14;8.65;;;1.52;;
33926;SDS011;20485;50.992;5.550;2023-08-31T01:45:42;3.85;;;1.63;;
33926;SDS011;20485;50.992;5.550;2023-08-31T01:48:09;5.32;;;1.50;;
33926;SDS011;20485;50.992;5.550;2023-08-31T01:50:35;5.60;;;1.73;;
33926;SDS011;20485;50.992;5.550;2023-08-31T01:53:00;5.80;;;1.60;;
33926;SDS011;20485;50.992;5.550;2023-08-31T01:55:26;9.25;;;1.90;;
33926;SDS011;20485;50.992;5.550;2023-08-31T01:57:52;4.43;;;1.55;;
33926;SDS011;20485;50.992;5.550;2023-08-31T02:00:18;2.50;;;1.45;;
33926;SDS011;20485;50.992;5.550;2023-08-31T02:02:45;1.80;;;1.50;;
33926;SDS011;20485;50.992;5.550;2023-08-31T02:05:10;2.90;;;2.00;;
33926;SDS011;20485;50.992;5.550;2023-08-31T02:07:36;5.85;;;1.40;;
33926;SDS011;20485;50.992;5.550;2023-08-31T02:10:02;7.03;;;1.90;;
33926;SDS011;20485;50.992;5.550;2023-08-31T02:12:31;4.50;;;2.15;;
33926;SDS011;20485;50.992;5.550;2023-08-31T02:14:57;6.25;;;2.10;;
33926;SDS011;20485;50.992;5.550;2023-08-31T02:17:22;3.22;;;1.95;;
33926;SDS011;20485;50.992;5.550;2023-08-31T02:19:48;4.82;;;1.90;;
33926;SDS011;20485;50.992;5.550;2023-08-31T02:22:14;3.72;;;1.98;;
33926;SDS011;20485;50.992;5.550;2023-08-31T02:24:39;10.30;;;2.95;;
33926;SDS011;20485;50.992;5.550;2023-08-31T02:27:05;3.10;;;2.50;;
33926;SDS011;20485;50.992;5.550;2023-08-31T02:29:31;3.92;;;2.45;;
33926;SDS011;20485;50.992;5.550;2023-08-31T02:31:56;14.23;;;2.85;;
33926;SDS011;20485;50.992;5.550;2023-08-31T02:34:22;6.57;;;2.35;;
33926;SDS011;20485;50.992;5.550;2023-08-31T02:36:48;9.43;;;2.97;;
33926;SDS011;20485;50.992;5.550;2023-08-31T02:39:13;9.82;;;2.70;;
33926;SDS011;20485;50.992;5.550;2023-08-31T02:41:40;7.95;;;2.63;;
33926;SDS011;20485;50.992;5.550;2023-08-31T02:44:06;5.72;;;3.00;;
33926;SDS011;20485;50.992;5.550;2023-08-31T02:46:32;5.45;;;2.30;;
33926;SDS011;20485;50.992;5.550;2023-08-31T02:48:57;9.88;;;3.10;;
33926;SDS011;20485;50.992;5.550;2023-08-31T02:51:23;4.45;;;2.75;;
33926;SDS011;20485;50.992;5.550;2023-08-31T02:53:49;6.50;;;2.65;;
33926;SDS011;20485;50.992;5.550;2023-08-31T02:56:15;6.65;;;3.58;;
33926;SDS011;20485;50.992;5.550;2023-08-31T02:58:40;11.23;;;4.00;;
33926;SDS011;20485;50.992;5.550;2023-08-31T03:01:07;19.60;;;2.60;;
33926;SDS011;20485;50.992;5.550;2023-08-31T03:03:40;4.45;;;3.13;;
33926;SDS011;20485;50.992;5.550;2023-08-31T03:06:07;9.00;;;2.85;;
33926;SDS011;20485;50.992;5.550;2023-08-31T03:08:36;6.90;;;2.88;;
33926;SDS011;20485;50.992;5.550;2023-08-31T03:11:02;5.93;;;3.05;;
33926;SDS011;20485;50.992;5.550;2023-08-31T03:13:29;4.93;;;3.15;;
33926;SDS011;20485;50.992;5.550;2023-08-31T03:15:55;8.82;;;3.00;;
33926;SDS011;20485;50.992;5.550;2023-08-31T03:18:21;4.82;;;2.90;;
33926;SDS011;20485;50.992;5.550;2023-08-31T03:20:48;9.73;;;3.45;;
33926;SDS011;20485;50.992;5.550;2023-08-31T03:23:14;9.85;;;3.22;;
33926;SDS011;20485;50.992;5.550;2023-08-31T03:25:39;6.13;;;3.20;;
33926;SDS011;20485;50.992;5.550;2023-08-31T03:28:05;9.70;;;3.63;;
33926;SDS011;20485;50.992;5.550;2023-08-31T03:30:31;9.57;;;4.00;;
33926;SDS011;20485;50.992;5.550;2023-08-31T03:32:57;9.68;;;3.58;;
33926;SDS011;20485;50.992;5.550;2023-08-31T03:35:22;10.95;;;4.75;;
33926;SDS011;20485;50.992;5.550;2023-08-31T03:37:52;9.85;;;4.68;;
33926;SDS011;20485;50.992;5.550;2023-08-31T03:40:18;8.57;;;3.90;;
33926;SDS011;20485;50.992;5.550;2023-08-31T03:42:44;11.35;;;4.60;;
33926;SDS011;20485;50.992;5.550;2023-08-31T03:45:10;6.25;;;3.95;;
33926;SDS011;20485;50.992;5.550;2023-08-31T03:47:36;10.95;;;5.32;;
33926;SDS011;20485;50.992;5.550;2023-08-31T03:50:02;11.30;;;4.57;;
33926;SDS011;20485;50.992;5.550;2023-08-31T03:52:29;9.18;;;4.45;;
33926;SDS011;20485;50.992;5.550;2023-08-31T03:54:54;14.75;;;5.07;;
33926;SDS011;20485;50.992;5.550;2023-08-31T03:57:20;9.75;;;4.30;;
33926;SDS011;20485;50.992;5.550;2023-08-31T03:59:46;12.00;;;4.43;;
33926;SDS011;20485;50.992;5.550;2023-08-31T04:02:12;14.63;;;5.00;;
33926;SDS011;20485;50.992;5.550;2023-08-31T04:04:38;13.80;;;5.30;;
33926;SDS011;20485;50.992;5.550;2023-08-31T04:07:04;13.05;;;4.28;;
33926;SDS011;20485;50.992;5.550;2023-08-31T04:09:31;14.60;;;4.80;;
33926;SDS011;20485;50.992;5.550;2023-08-31T04:11:57;7.78;;;5.05;;
33926;SDS011;20485;50.992;5.550;2023-08-31T04:14:22;12.52;;;5.22;;
33926;SDS011;20485;50.992;5.550;2023-08-31T04:16:48;16.80;;;5.07;;
33926;SDS011;20485;50.992;5.550;2023-08-31T04:19:15;15.18;;;5.00;;
33926;SDS011;20485;50.992;5.550;2023-08-31T04:21:42;9.95;;;4.45;;
33926;SDS011;20485;50.992;5.550;2023-08-31T04:24:08;8.73;;;4.60;;
33926;SDS011;20485;50.992;5.550;2023-08-31T04:26:34;11.00;;;4.60;;
33926;SDS011;20485;50.992;5.550;2023-08-31T04:29:01;14.23;;;5.05;;
33926;SDS011;20485;50.992;5.550;2023-08-31T04:31:28;15.00;;;4.78;;
33926;SDS011;20485;50.992;5.550;2023-08-31T04:33:54;12.65;;;4.93;;
33926;SDS011;20485;50.992;5.550;2023-08-31T04:36:20;12.93;;;4.93;;
33926;SDS011;20485;50.992;5.550;2023-08-31T04:38:48;16.48;;;5.25;;
33926;SDS011;20485;50.992;5.550;2023-08-31T04:41:14;10.90;;;4.88;;
33926;SDS011;20485;50.992;5.550;2023-08-31T04:43:40;9.90;;;5.18;;
33926;SDS011;20485;50.992;5.550;2023-08-31T04:46:06;13.13;;;4.88;;
33926;SDS011;20485;50.992;5.550;2023-08-31T04:48:32;11.15;;;4.40;;
33926;SDS011;20485;50.992;5.550;2023-08-31T04:50:58;12.27;;;5.65;;
33926;SDS011;20485;50.992;5.550;2023-08-31T04:53:24;14.18;;;5.28;;
33926;SDS011;20485;50.992;5.550;2023-08-31T04:55:50;15.13;;;6.20;;
33926;SDS011;20485;50.992;5.550;2023-08-31T04:58:16;13.20;;;5.60;;
33926;SDS011;20485;50.992;5.550;2023-08-31T05:00:41;11.18;;;4.82;;
33926;SDS011;20485;50.992;5.550;2023-08-31T05:03:09;10.50;;;5.00;;
33926;SDS011;20485;50.992;5.550;2023-08-31T05:05:35;7.25;;;4.78;;
33926;SDS011;20485;50.992;5.550;2023-08-31T05:08:01;14.75;;;5.72;;
33926;SDS011;20485;50.992;5.550;2023-08-31T05:10:28;11.43;;;5.78;;
33926;SDS011;20485;50.992;5.550;2023-08-31T05:12:53;20.20;;;6.03;;
33926;SDS011;20485;50.992;5.550;2023-08-31T05:15:19;12.75;;;5.70;;
33926;SDS011;20485;50.992;5.550;2023-08-31T05:17:45;12.07;;;6.00;;
33926;SDS011;20485;50.992;5.550;2023-08-31T05:20:11;15.85;;;6.00;;
33926;SDS011;20485;50.992;5.550;2023-08-31T05:22:37;14.48;;;5.72;;
33926;SDS011;20485;50.992;5.550;2023-08-31T05:25:03;20.02;;;5.72;;
33926;SDS011;20485;50.992;5.550;2023-08-31T05:27:29;16.40;;;4.93;;
33926;SDS011;20485;50.992;5.550;2023-08-31T05:29:55;10.38;;;5.22;;
33926;SDS011;20485;50.992;5.550;2023-08-31T05:32:20;11.57;;;5.15;;
33926;SDS011;20485;50.992;5.550;2023-08-31T05:34:46;15.50;;;4.78;;
33926;SDS011;20485;50.992;5.550;2023-08-31T05:37:12;10.43;;;5.75;;
33926;SDS011;20485;50.992;5.550;2023-08-31T05:39:39;9.38;;;5.00;;
33926;SDS011;20485;50.992;5.550;2023-08-31T05:42:04;17.38;;;5.25;;
33926;SDS011;20485;50.992;5.550;2023-08-31T05:44:30;12.48;;;5.30;;
33926;SDS011;20485;50.992;5.550;2023-08-31T05:46:55;14.05;;;5.70;;
33926;SDS011;20485;50.992;5.550;2023-08-31T05:49:21;11.73;;;5.03;;
33926;SDS011;20485;50.992;5.550;2023-08-31T05:51:49;15.07;;;5.50;;
33926;SDS011;20485;50.992;5.550;2023-08-31T05:54:15;16.20;;;6.30;;
33926;SDS011;20485;50.992;5.550;2023-08-31T05:56:41;13.15;;;5.97;;
33926;SDS011;20485;50.992;5.550;2023-08-31T05:59:07;14.63;;;5.70;;
33926;SDS011;20485;50.992;5.550;2023-08-31T06:01:34;18.67;;;7.00;;
33926;SDS011;20485;50.992;5.550;2023-08-31T06:04:01;22.55;;;6.45;;
33926;SDS011;20485;50.992;5.550;2023-08-31T06:06:28;14.77;;;6.45;;
33926;SDS011;20485;50.992;5.550;2023-08-31T06:08:54;20.70;;;6.88;;
33926;SDS011;20485;50.992;5.550;2023-08-31T06:11:20;16.95;;;6.65;;
33926;SDS011;20485;50.992;5.550;2023-08-31T06:13:46;18.08;;;6.10;;
33926;SDS011;20485;50.992;5.550;2023-08-31T06:16:12;24.02;;;6.45;;
33926;SDS011;20485;50.992;5.550;2023-08-31T06:18:37;19.13;;;5.88;;
33926;SDS011;20485;50.992;5.550;2023-08-31T06:21:03;11.05;;;5.60;;
33926;SDS011;20485;50.992;5.550;2023-08-31T06:23:29;14.85;;;5.28;;
33926;SDS011;20485;50.992;5.550;2023-08-31T06:25:55;25.40;;;5.60;;
33926;SDS011;20485;50.992;5.550;2023-08-31T06:28:21;15.63;;;4.82;;
33926;SDS011;20485;50.992;5.550;2023-08-31T06:30:46;19.30;;;5.03;;
33926;SDS011;20485;50.992;5.550;2023-08-31T06:33:15;14.98;;;4.72;;
33926;SDS011;20485;50.992;5.550;2023-08-31T06:35:47;17.95;;;4.80;;
33926;SDS011;20485;50.992;5.550;2023-08-31T06:38:13;10.80;;;4.35;;
33926;SDS011;20485;50.992;5.550;2023-08-31T06:40:41;10.80;;;4.07;;
33926;SDS011;20485;50.992;5.550;2023-08-31T06:43:08;9.40;;;4.47;;
33926;SDS011;20485;50.992;5.550;2023-08-31T06:45:34;8.73;;;3.70;;
33926;SDS011;20485;50.992;5.550;2023-08-31T06:48:00;12.20;;;4.20;;
33926;SDS011;20485;50.992;5.550;2023-08-31T06:50:27;11.85;;;4.15;;
33926;SDS011;20485;50.992;5.550;2023-08-31T06:52:53;12.05;;;3.88;;
33926;SDS011;20485;50.992;5.550;2023-08-31T06:55:18;17.63;;;3.95;;
33926;SDS011;20485;50.992;5.550;2023-08-31T06:57:44;14.40;;;4.13;;
33926;SDS011;20485;50.992;5.550;2023-08-31T07:00:10;15.93;;;4.38;;
33926;SDS011;20485;50.992;5.550;2023-08-31T07:02:39;13.30;;;4.40;;
33926;SDS011;20485;50.992;5.550;2023-08-31T07:05:05;10.82;;;4.63;;
33926;SDS011;20485;50.992;5.550;2023-08-31T07:07:31;10.68;;;4.07;;
33926;SDS011;20485;50.992;5.550;2023-08-31T07:09:57;16.88;;;4.75;;
33926;SDS011;20485;50.992;5.550;2023-08-31T07:12:23;21.48;;;4.65;;
33926;SDS011;20485;50.992;5.550;2023-08-31T07:14:48;15.88;;;4.90;;
33926;SDS011;20485;50.992;5.550;2023-08-31T07:17:17;14.57;;;4.50;;
33926;SDS011;20485;50.992;5.550;2023-08-31T07:19:44;12.73;;;3.47;;
33926;SDS011;20485;50.992;5.550;2023-08-31T07:22:09;22.23;;;4.28;;
33926;SDS011;20485;50.992;5.550;2023-08-31T07:24:35;9.23;;;3.90;;
33926;SDS011;20485;50.992;5.550;2023-08-31T07:27:02;10.45;;;3.60;;
33926;SDS011;20485;50.992;5.550;2023-08-31T07:29:28;11.35;;;4.30;;
33926;SDS011;20485;50.992;5.550;2023-08-31T07:31:54;17.17;;;4.20;;
33926;SDS011;20485;50.992;5.550;2023-08-31T07:34:19;16.70;;;4.95;;
33926;SDS011;20485;50.992;5.550;2023-08-31T07:36:45;15.95;;;3.75;;
33926;SDS011;20485;50.992;5.550;2023-08-31T07:39:11;15.27;;;4.55;;
33926;SDS011;20485;50.992;5.550;2023-08-31T07:41:37;12.60;;;4.30;;
33926;SDS011;20485;50.992;5.550;2023-08-31T07:44:03;15.05;;;5.60;;
33926;SDS011;20485;50.992;5.550;2023-08-31T07:46:29;11.90;;;4.22;;
33926;SDS011;20485;50.992;5.550;2023-08-31T07:48:55;12.13;;;3.58;;
33926;SDS011;20485;50.992;5.550;2023-08-31T07:51:20;12.38;;;3.92;;
33926;SDS011;20485;50.992;5.550;2023-08-31T07:53:49;17.40;;;4.30;;
33926;SDS011;20485;50.992;5.550;2023-08-31T07:56:15;18.13;;;4.43;;
33926;SDS011;20485;50.992;5.550;2023-08-31T07:58:41;11.63;;;4.35;;
33926;SDS011;20485;50.992;5.550;2023-08-31T08:01:06;15.35;;;4.20;;
33926;SDS011;20485;50.992;5.550;2023-08-31T08:03:32;12.30;;;4.00;;
33926;SDS011;20485;50.992;5.550;2023-08-31T08:05:58;20.90;;;4.00;;
33926;SDS011;20485;50.992;5.550;2023-08-31T08:08:23;9.43;;;3.50;;
33926;SDS011;20485;50.992;5.550;2023-08-31T08:10:52;14.50;;;4.07;;
33926;SDS011;20485;50.992;5.550;2023-08-31T08:13:18;11.65;;;3.47;;
33926;SDS011;20485;50.992;5.550;2023-08-31T08:15:47;13.65;;;3.38;;
33926;SDS011;20485;50.992;5.550;2023-08-31T08:18:13;7.82;;;3.10;;
33926;SDS011;20485;50.992;5.550;2023-08-31T08:20:38;9.30;;;3.65;;
33926;SDS011;20485;50.992;5.550;2023-08-31T08:23:05;11.05;;;3.75;;
33926;SDS011;20485;50.992;5.550;2023-08-31T08:25:31;9.60;;;3.35;;
33926;SDS011;20485;50.992;5.550;2023-08-31T08:27:56;16.92;;;4.05;;
33926;SDS011;20485;50.992;5.550;2023-08-31T08:30:22;14.05;;;4.40;;
33926;SDS011;20485;50.992;5.550;2023-08-31T08:32:48;10.65;;;3.33;;
33926;SDS011;20485;50.992;5.550;2023-08-31T08:35:13;18.95;;;4.32;;
33926;SDS011;20485;50.992;5.550;2023-08-31T08:37:39;8.75;;;3.47;;
33926;SDS011;20485;50.992;5.550;2023-08-31T08:40:05;15.25;;;4.20;;
33926;SDS011;20485;50.992;5.550;2023-08-31T08:42:31;9.20;;;3.50;;
33926;SDS011;20485;50.992;5.550;2023-08-31T08:45:04;11.35;;;4.85;;
33926;SDS011;20485;50.992;5.550;2023-08-31T08:47:31;16.63;;;5.32;;
33926;SDS011;20485;50.992;5.550;2023-08-31T08:49:58;13.60;;;4.00;;
33926;SDS011;20485;50.992;5.550;2023-08-31T08:52:25;12.80;;;3.53;;
33926;SDS011;20485;50.992;5.550;2023-08-31T08:54:52;19.08;;;4.70;;
33926;SDS011;20485;50.992;5.550;2023-08-31T08:57:18;7.80;;;3.53;;
33926;SDS011;20485;50.992;5.550;2023-08-31T08:59:44;18.17;;;4.93;;
33926;SDS011;20485;50.992;5.550;2023-08-31T09:02:10;15.20;;;4.47;;
33926;SDS011;20485;50.992;5.550;2023-08-31T09:04:39;12.40;;;3.80;;
33926;SDS011;20485;50.992;5.550;2023-08-31T09:07:04;13.15;;;2.92;;
33926;SDS011;20485;50.992;5.550;2023-08-31T09:09:31;14.00;;;4.55;;
33926;SDS011;20485;50.992;5.550;2023-08-31T09:11:57;11.10;;;3.28;;
33926;SDS011;20485;50.992;5.550;2023-08-31T09:14:31;9.98;;;4.00;;
33926;SDS011;20485;50.992;5.550;2023-08-31T09:16:57;12.57;;;3.80;;
33926;SDS011;20485;50.992;5.550;2023-08-31T09:19:24;14.45;;;3.63;;
33926;SDS011;20485;50.992;5.550;2023-08-31T09:21:55;11.90;;;3.88;;
33926;SDS011;20485;50.992;5.550;2023-08-31T09:24:21;11.45;;;3.97;;
33926;SDS011;20485;50.992;5.550;2023-08-31T09:26:57;17.20;;;3.70;;
33926;SDS011;20485;50.992;5.550;2023-08-31T09:29:23;17.60;;;3.72;;
33926;SDS011;20485;50.992;5.550;2023-08-31T09:31:50;9.82;;;4.00;;
33926;SDS011;20485;50.992;5.550;2023-08-31T09:34:16;10.88;;;3.45;;
33926;SDS011;20485;50.992;5.550;2023-08-31T09:36:43;14.57;;;3.55;;
33926;SDS011;20485;50.992;5.550;2023-08-31T09:39:09;13.25;;;3.50;;
33926;SDS011;20485;50.992;5.550;2023-08-31T09:41:54;12.10;;;2.90;;
33926;SDS011;20485;50.992;5.550;2023-08-31T09:44:20;11.75;;;3.40;;
33926;SDS011;20485;50.992;5.550;2023-08-31T09:46:47;14.98;;;3.47;;
33926;SDS011;20485;50.992;5.550;2023-08-31T09:49:13;12.25;;;2.95;;
33926;SDS011;20485;50.992;5.550;2023-08-31T09:51:41;10.15;;;3.65;;
33926;SDS011;20485;50.992;5.550;2023-08-31T09:54:13;10.73;;;3.65;;
33926;SDS011;20485;50.992;5.550;2023-08-31T09:56:41;8.85;;;3.05;;
33926;SDS011;20485;50.992;5.550;2023-08-31T09:59:09;18.85;;;2.92;;
33926;SDS011;20485;50.992;5.550;2023-08-31T10:01:36;12.18;;;2.90;;
33926;SDS011;20485;50.992;5.550;2023-08-31T10:04:02;14.73;;;2.75;;
33926;SDS011;20485;50.992;5.550;2023-08-31T10:06:29;10.52;;;2.75;;
33926;SDS011;20485;50.992;5.550;2023-08-31T10:08:56;13.77;;;3.22;;
33926;SDS011;20485;50.992;5.550;2023-08-31T10:11:23;11.85;;;3.10;;
33926;SDS011;20485;50.992;5.550;2023-08-31T10:13:50;6.75;;;2.83;;
33926;SDS011;20485;50.992;5.550;2023-08-31T10:16:19;8.15;;;3.38;;
33926;SDS011;20485;50.992;5.550;2023-08-31T10:18:46;7.80;;;2.53;;
33926;SDS011;20485;50.992;5.550;2023-08-31T10:21:16;9.55;;;3.13;;
33926;SDS011;20485;50.992;5.550;2023-08-31T10:23:48;9.70;;;2.42;;
33926;SDS011;20485;50.992;5.550;2023-08-31T10:28:53;10.18;;;2.92;;
33926;SDS011;20485;50.992;5.550;2023-08-31T10:31:20;7.70;;;2.53;;
33926;SDS011;20485;50.992;5.550;2023-08-31T10:33:59;10.85;;;2.90;;
33926;SDS011;20485;50.992;5.550;2023-08-31T10:36:35;10.43;;;2.30;;
33926;SDS011;20485;50.992;5.550;2023-08-31T10:39:12;8.25;;;2.58;;
33926;SDS011;20485;50.992;5.550;2023-08-31T10:41:51;6.20;;;2.42;;
33926;SDS011;20485;50.992;5.550;2023-08-31T10:44:22;8.82;;;2.63;;
33926;SDS011;20485;50.992;5.550;2023-08-31T10:46:49;17.67;;;2.92;;
33926;SDS011;20485;50.992;5.550;2023-08-31T10:49:16;10.25;;;2.55;;
33926;SDS011;20485;50.992;5.550;2023-08-31T10:51:47;10.00;;;2.40;;
33926;SDS011;20485;50.992;5.550;2023-08-31T10:59:26;11.30;;;3.65;;
33926;SDS011;20485;50.992;5.550;2023-08-31T11:02:06;9.70;;;2.90;;
33926;SDS011;20485;50.992;5.550;2023-08-31T11:04:38;11.98;;;2.63;;
33926;SDS011;20485;50.992;5.550;2023-08-31T11:07:18;9.10;;;2.30;;
33926;SDS011;20485;50.992;5.550;2023-08-31T11:09:45;10.07;;;2.15;;
33926;SDS011;20485;50.992;5.550;2023-08-31T11:12:11;7.70;;;2.40;;
33926;SDS011;20485;50.992;5.550;2023-08-31T11:14:38;7.22;;;2.05;;
33926;SDS011;20485;50.992;5.550;2023-08-31T11:17:05;10.65;;;2.72;;
33926;SDS011;20485;50.992;5.550;2023-08-31T11:19:31;9.77;;;2.45;;
33926;SDS011;20485;50.992;5.550;2023-08-31T11:21:58;8.25;;;2.15;;
33926;SDS011;20485;50.992;5.550;2023-08-31T11:24:27;6.53;;;2.22;;
33926;SDS011;20485;50.992;5.550;2023-08-31T11:26:53;7.72;;;1.85;;
33926;SDS011;20485;50.992;5.550;2023-08-31T11:29:20;7.47;;;1.35;;
33926;SDS011;20485;50.992;5.550;2023-08-31T11:31:46;9.38;;;1.88;;
33926;SDS011;20485;50.992;5.550;2023-08-31T11:34:12;6.85;;;1.83;;
33926;SDS011;20485;50.992;5.550;2023-08-31T11:36:42;8.20;;;1.55;;
33926;SDS011;20485;50.992;5.550;2023-08-31T11:39:09;3.83;;;1.30;;
33926;SDS011;20485;50.992;5.550;2023-08-31T11:41:36;5.10;;;1.67;;
33926;SDS011;20485;50.992;5.550;2023-08-31T11:44:07;7.20;;;1.55;;
33926;SDS011;20485;50.992;5.550;2023-08-31T11:46:35;5.20;;;1.73;;
33926;SDS011;20485;50.992;5.550;2023-08-31T11:49:01;7.05;;;1.83;;
33926;SDS011;20485;50.992;5.550;2023-08-31T11:51:29;11.55;;;1.73;;
33926;SDS011;20485;50.992;5.550;2023-08-31T11:53:57;8.30;;;1.75;;
33926;SDS011;20485;50.992;5.550;2023-08-31T11:56:24;9.77;;;1.40;;
33926;SDS011;20485;50.992;5.550;2023-08-31T11:58:50;3.83;;;1.45;;
33926;SDS011;20485;50.992;5.550;2023-08-31T12:01:20;6.97;;;1.70;;
33926;SDS011;20485;50.992;5.550;2023-08-31T12:03:46;8.50;;;2.05;;
33926;SDS011;20485;50.992;5.550;2023-08-31T12:06:15;7.00;;;1.90;;
33926;SDS011;20485;50.992;5.550;2023-08-31T12:08:44;7.05;;;2.10;;
33926;SDS011;20485;50.992;5.550;2023-08-31T12:11:10;7.05;;;1.70;;
33926;SDS011;20485;50.992;5.550;2023-08-31T12:13:36;12.85;;;2.30;;
33926;SDS011;20485;50.992;5.550;2023-08-31T12:16:02;8.60;;;2.08;;
33926;SDS011;20485;50.992;5.550;2023-08-31T12:18:30;5.15;;;1.30;;
33926;SDS011;20485;50.992;5.550;2023-08-31T12:20:58;9.77;;;2.17;;
33926;SDS011;20485;50.992;5.550;2023-08-31T12:23:25;10.38;;;2.47;;
33926;SDS011;20485;50.992;5.550;2023-08-31T12:25:52;6.07;;;1.55;;
33926;SDS011;20485;50.992;5.550;2023-08-31T12:28:19;6.50;;;1.85;;
33926;SDS011;20485;50.992;5.550;2023-08-31T12:30:50;9.82;;;1.90;;
33926;SDS011;20485;50.992;5.550;2023-08-31T12:33:17;5.13;;;1.70;;
33926;SDS011;20485;50.992;5.550;2023-08-31T12:35:44;3.63;;;1.70;;
33926;SDS011;20485;50.992;5.550;2023-08-31T12:38:11;6.53;;;2.17;;
33926;SDS011;20485;50.992;5.550;2023-08-31T12:40:37;4.88;;;1.90;;
33926;SDS011;20485;50.992;5.550;2023-08-31T12:43:06;7.45;;;1.83;;
33926;SDS011;20485;50.992;5.550;2023-08-31T12:45:32;9.15;;;1.80;;
33926;SDS011;20485;50.992;5.550;2023-08-31T12:47:58;5.25;;;1.70;;
33926;SDS011;20485;50.992;5.550;2023-08-31T12:50:25;9.45;;;2.45;;
33926;SDS011;20485;50.992;5.550;2023-08-31T12:52:50;7.70;;;2.30;;
33926;SDS011;20485;50.992;5.550;2023-08-31T12:55:16;5.63;;;2.00;;
33926;SDS011;20485;50.992;5.550;2023-08-31T12:57:42;9.05;;;2.38;;
33926;SDS011;20485;50.992;5.550;2023-08-31T13:00:08;7.15;;;2.05;;
33926;SDS011;20485;50.992;5.550;2023-08-31T13:02:39;6.35;;;2.03;;
33926;SDS011;20485;50.992;5.550;2023-08-31T13:05:06;6.63;;;1.90;;
33926;SDS011;20485;50.992;5.550;2023-08-31T13:07:33;6.20;;;2.25;;
33926;SDS011;20485;50.992;5.550;2023-08-31T13:10:02;7.07;;;1.75;;
33926;SDS011;20485;50.992;5.550;2023-08-31T13:12:29;9.68;;;1.98;;
33926;SDS011;20485;50.992;5.550;2023-08-31T13:14:56;11.45;;;2.30;;
33926;SDS011;20485;50.992;5.550;2023-08-31T13:17:22;9.95;;;2.03;;
33926;SDS011;20485;50.992;5.550;2023-08-31T13:19:57;7.00;;;1.80;;
33926;SDS011;20485;50.992;5.550;2023-08-31T13:22:23;8.00;;;1.90;;
33926;SDS011;20485;50.992;5.550;2023-08-31T13:24:50;8.95;;;2.13;;
33926;SDS011;20485;50.992;5.550;2023-08-31T13:27:16;10.35;;;2.30;;
33926;SDS011;20485;50.992;5.550;2023-08-31T13:29:42;7.03;;;1.98;;
33926;SDS011;20485;50.992;5.550;2023-08-31T13:32:08;7.35;;;1.98;;
33926;SDS011;20485;50.992;5.550;2023-08-31T13:34:34;7.43;;;2.10;;
33926;SDS011;20485;50.992;5.550;2023-08-31T13:37:01;8.00;;;2.03;;
33926;SDS011;20485;50.992;5.550;2023-08-31T13:39:28;6.63;;;2.00;;
33926;SDS011;20485;50.992;5.550;2023-08-31T13:41:58;8.10;;;1.75;;
33926;SDS011;20485;50.992;5.550;2023-08-31T13:44:27;5.97;;;2.17;;
33926;SDS011;20485;50.992;5.550;2023-08-31T13:46:52;6.68;;;2.00;;
33926;SDS011;20485;50.992;5.550;2023-08-31T13:49:18;6.05;;;1.77;;
33926;SDS011;20485;50.992;5.550;2023-08-31T13:51:44;9.88;;;1.92;;
33926;SDS011;20485;50.992;5.550;2023-08-31T13:54:10;4.55;;;1.73;;
33926;SDS011;20485;50.992;5.550;2023-08-31T13:56:36;6.32;;;1.75;;
33926;SDS011;20485;50.992;5.550;2023-08-31T13:59:02;8.30;;;2.33;;
33926;SDS011;20485;50.992;5.550;2023-08-31T14:01:28;6.00;;;1.80;;
33926;SDS011;20485;50.992;5.550;2023-08-31T14:03:53;8.02;;;1.90;;
33926;SDS011;20485;50.992;5.550;2023-08-31T14:06:19;9.35;;;1.80;;
33926;SDS011;20485;50.992;5.550;2023-08-31T14:08:45;6.95;;;1.58;;
33926;SDS011;20485;50.992;5.550;2023-08-31T14:11:10;8.55;;;2.00;;
33926;SDS011;20485;50.992;5.550;2023-08-31T14:13:39;5.80;;;1.60;;
33926;SDS011;20485;50.992;5.550;2023-08-31T14:16:05;8.48;;;2.30;;
33926;SDS011;20485;50.992;5.550;2023-08-31T14:18:32;5.97;;;1.73;;
33926;SDS011;20485;50.992;5.550;2023-08-31T14:20:57;6.32;;;1.77;;
33926;SDS011;20485;50.992;5.550;2023-08-31T14:23:25;8.35;;;1.80;;
33926;SDS011;20485;50.992;5.550;2023-08-31T14:25:50;4.25;;;1.83;;
33926;SDS011;20485;50.992;5.550;2023-08-31T14:28:16;9.82;;;1.92;;
33926;SDS011;20485;50.992;5.550;2023-08-31T14:30:42;13.13;;;1.70;;
33926;SDS011;20485;50.992;5.550;2023-08-31T14:33:07;7.40;;;1.65;;
33926;SDS011;20485;50.992;5.550;2023-08-31T14:35:36;10.43;;;1.83;;
33926;SDS011;20485;50.992;5.550;2023-08-31T14:38:03;5.80;;;1.90;;
33926;SDS011;20485;50.992;5.550;2023-08-31T14:40:29;6.40;;;1.90;;
33926;SDS011;20485;50.992;5.550;2023-08-31T14:42:55;10.73;;;1.75;;
33926;SDS011;20485;50.992;5.550;2023-08-31T14:45:20;8.23;;;1.95;;
33926;SDS011;20485;50.992;5.550;2023-08-31T14:47:46;5.65;;;1.77;;
33926;SDS011;20485;50.992;5.550;2023-08-31T14:50:12;4.60;;;1.88;;
33926;SDS011;20485;50.992;5.550;2023-08-31T14:52:38;7.68;;;1.98;;
33926;SDS011;20485;50.992;5.550;2023-08-31T14:55:03;8.75;;;2.60;;
33926;SDS011;20485;50.992;5.550;2023-08-31T14:57:30;8.57;;;2.08;;